createdAt,value
2022-08-14T00:00:07.428Z,7.10
2022-08-14T00:02:52.053Z,7.15
2022-08-14T00:09:09.975Z,7.03
2022-08-14T00:11:37.381Z,6.97
2022-08-14T00:14:10.533Z,7.25
2022-08-14T00:16:44.974Z,7.10
2022-08-14T00:19:19.214Z,7.47
2022-08-14T00:21:53.174Z,7.45
2022-08-14T00:24:28.668Z,7.15
2022-08-14T00:27:01.841Z,7.20
2022-08-14T00:29:32.936Z,7.40
2022-08-14T00:32:51.652Z,7.32
2022-08-14T00:34:54.452Z,6.53
2022-08-14T00:37:23.151Z,7.22
2022-08-14T00:39:51.467Z,7.10
2022-08-14T00:42:55.529Z,8.05
2022-08-14T00:45:13.838Z,7.72
2022-08-14T00:47:43.255Z,7.32
2022-08-14T00:50:17.853Z,7.97
2022-08-14T00:52:50.830Z,8.45
2022-08-14T00:55:19.862Z,7.80
2022-08-14T00:58:07.434Z,7.88
2022-08-14T01:00:42.757Z,8.20
2022-08-14T01:05:51.534Z,7.83
2022-08-14T01:08:57.193Z,8.20
2022-08-14T01:11:19.557Z,7.75
2022-08-14T01:13:50.716Z,7.35
2022-08-14T01:16:28.159Z,7.97
2022-08-14T01:19:16.625Z,7.68
2022-08-14T01:21:47.135Z,8.10
2022-08-14T01:24:22.944Z,8.30
2022-08-14T01:27:00.108Z,7.53
2022-08-14T01:29:43.111Z,7.43
2022-08-14T01:32:23.224Z,7.30
2022-08-14T01:35:17.358Z,7.75
2022-08-14T01:37:56.159Z,7.78
2022-08-14T01:40:25.710Z,7.95
2022-08-14T01:43:02.554Z,8.15
2022-08-14T01:45:29.447Z,7.83
2022-08-14T01:48:07.257Z,8.32
2022-08-14T01:50:41.808Z,7.72
2022-08-14T01:53:08.479Z,7.10
2022-08-14T01:55:36.180Z,7.78
2022-08-14T01:58:19.801Z,7.93
2022-08-14T02:00:55.075Z,7.70
2022-08-14T02:03:31.764Z,7.53
2022-08-14T02:06:00.063Z,8.23
2022-08-14T02:08:35.616Z,8.13
2022-08-14T02:11:22.638Z,8.05
2022-08-14T02:13:59.595Z,8.07
2022-08-14T02:16:39.390Z,8.35
2022-08-14T02:19:09.996Z,7.85
2022-08-14T02:21:43.615Z,8.15
2022-08-14T02:24:39.367Z,7.40
2022-08-14T02:28:23.589Z,7.30
2022-08-14T02:30:00.092Z,7.88
2022-08-14T02:35:18.842Z,7.97
2022-08-14T02:37:49.315Z,8.52
2022-08-14T02:42:54.229Z,7.63
2022-08-14T02:45:22.006Z,7.78
2022-08-14T02:47:49.710Z,8.43
2022-08-14T02:50:27.249Z,8.07
2022-08-14T02:52:57.193Z,8.25
2022-08-14T02:55:24.634Z,8.88
2022-08-14T02:58:02.982Z,7.63
2022-08-14T03:00:33.182Z,9.55
2022-08-14T03:03:02.683Z,9.45
2022-08-14T03:05:36.073Z,8.50
2022-08-14T03:08:09.296Z,8.18
2022-08-14T03:10:42.005Z,8.63
2022-08-14T03:13:19.494Z,8.07
2022-08-14T03:15:56.213Z,8.13
2022-08-14T03:18:31.563Z,8.65
2022-08-14T03:21:01.752Z,8.50
2022-08-14T03:23:29.823Z,9.03
2022-08-14T03:25:56.372Z,9.70
2022-08-14T03:28:33.408Z,8.45
2022-08-14T03:31:00.721Z,8.82
2022-08-14T03:33:37.508Z,9.48
2022-08-14T03:37:37.552Z,8.93
2022-08-14T03:39:12.602Z,8.65
2022-08-14T03:41:44.905Z,9.40
2022-08-14T03:45:26.479Z,9.20
2022-08-14T03:46:58.195Z,10.02
2022-08-14T03:49:28.464Z,9.02
2022-08-14T03:51:57.703Z,10.38
2022-08-14T03:54:26.259Z,9.52
2022-08-14T03:56:54.577Z,9.32
2022-08-14T03:59:21.178Z,8.35
2022-08-14T04:01:57.959Z,9.60
2022-08-14T04:04:28.206Z,9.18
2022-08-14T04:06:55.098Z,9.20
2022-08-14T04:09:26.836Z,9.45
2022-08-14T04:11:53.894Z,10.35
2022-08-14T04:14:20.533Z,8.88
2022-08-14T04:16:48.018Z,9.60
2022-08-14T04:19:20.035Z,9.48
2022-08-14T04:22:01.816Z,9.73
2022-08-14T04:24:37.659Z,9.68
2022-08-14T04:27:11.919Z,9.55
2022-08-14T04:29:42.924Z,10.18
2022-08-14T04:32:59.322Z,10.27
2022-08-14T04:35:07.709Z,10.38
2022-08-14T04:37:55.878Z,9.65
2022-08-14T04:40:42.135Z,10.63
2022-08-14T04:43:38.576Z,9.50
2022-08-14T04:46:55.891Z,9.80
2022-08-14T04:49:04.522Z,9.88
2022-08-14T04:51:46.328Z,9.90
2022-08-14T04:54:13.974Z,9.75
2022-08-14T04:56:43.357Z,9.93
2022-08-14T04:59:11.941Z,10.20
2022-08-14T05:01:48.772Z,10.93
2022-08-14T05:04:22.021Z,11.27
2022-08-14T05:06:55.160Z,10.60
2022-08-14T05:09:29.152Z,10.50
2022-08-14T05:13:10.627Z,10.88
2022-08-14T05:14:53.567Z,10.85
2022-08-14T05:17:32.141Z,11.80
2022-08-14T05:21:04.953Z,11.10
2022-08-14T05:22:59.423Z,10.98
2022-08-14T05:25:26.037Z,11.80
2022-08-14T05:28:00.570Z,11.35
2022-08-14T05:30:27.203Z,11.70
2022-08-14T05:32:53.968Z,10.90
2022-08-14T05:35:21.804Z,10.82
2022-08-14T05:37:50.112Z,11.55
2022-08-14T05:40:16.889Z,11.25
2022-08-14T05:42:46.556Z,11.57
2022-08-14T05:45:20.051Z,12.25
2022-08-14T05:47:46.664Z,12.50
2022-08-14T05:50:19.592Z,11.75
2022-08-14T05:52:48.324Z,12.45
2022-08-14T05:55:15.346Z,13.40
2022-08-14T05:57:59.820Z,12.77
2022-08-14T06:00:31.673Z,13.55
2022-08-14T06:03:07.792Z,13.25
2022-08-14T06:05:38.845Z,12.38
2022-08-14T06:08:08.583Z,12.90
2022-08-14T06:10:50.728Z,12.77
2022-08-14T06:13:18.560Z,11.80
2022-08-14T06:15:46.397Z,11.55
2022-08-14T06:18:12.993Z,11.48
2022-08-14T06:20:44.360Z,11.60
2022-08-14T06:23:12.891Z,11.10
2022-08-14T06:25:41.350Z,11.00
2022-08-14T06:28:27.980Z,11.52
2022-08-14T06:30:55.573Z,10.93
2022-08-14T06:33:22.765Z,11.77
2022-08-14T06:35:56.778Z,11.10
2022-08-14T06:38:23.938Z,11.10
2022-08-14T06:40:51.645Z,11.57
2022-08-14T06:43:20.683Z,11.35
2022-08-14T06:45:53.802Z,11.70
2022-08-14T06:48:23.903Z,10.95
2022-08-14T06:50:54.784Z,11.23
2022-08-14T06:53:22.208Z,11.15
2022-08-14T06:56:00.861Z,11.07
2022-08-14T06:58:31.402Z,11.52
2022-08-14T07:01:24.795Z,10.88
2022-08-14T07:04:23.691Z,11.73
2022-08-14T07:06:54.797Z,11.80
2022-08-14T07:09:24.895Z,12.07
2022-08-14T07:11:54.202Z,11.63
2022-08-14T07:14:20.782Z,12.60
2022-08-14T07:16:47.507Z,11.48
2022-08-14T07:19:17.580Z,11.48
2022-08-14T07:21:47.499Z,11.45
2022-08-14T07:24:21.947Z,11.88
2022-08-14T07:26:53.378Z,11.65
2022-08-14T07:29:26.038Z,11.48
2022-08-14T07:31:53.112Z,10.45
2022-08-14T07:34:36.646Z,10.52
2022-08-14T07:37:06.294Z,10.25
2022-08-14T07:39:34.502Z,10.70
2022-08-14T07:42:01.963Z,10.45
2022-08-14T07:44:32.044Z,10.07
2022-08-14T07:47:02.259Z,9.57
2022-08-14T07:49:32.387Z,9.75
2022-08-14T07:52:00.009Z,9.93
2022-08-14T07:54:29.927Z,9.90
2022-08-14T07:56:59.786Z,10.15
2022-08-14T07:59:41.065Z,10.52
2022-08-14T08:02:16.987Z,9.23
2022-08-14T08:04:49.565Z,10.10
2022-08-14T08:07:16.780Z,9.57
2022-08-14T08:09:53.261Z,9.90
2022-08-14T08:12:26.260Z,9.50
2022-08-14T08:15:07.310Z,9.60
2022-08-14T08:17:38.617Z,9.43
2022-08-14T08:20:11.790Z,10.50
2022-08-14T08:22:40.923Z,9.57
2022-08-14T08:25:13.519Z,9.95
2022-08-14T08:27:44.596Z,9.93
2022-08-14T08:30:12.414Z,10.45
2022-08-14T08:32:43.485Z,9.20
2022-08-14T08:35:17.447Z,10.02
2022-08-14T08:37:45.074Z,9.73
2022-08-14T08:40:31.274Z,9.68
2022-08-14T08:42:59.306Z,10.05
2022-08-14T08:45:26.009Z,10.23
2022-08-14T08:47:54.463Z,9.25
2022-08-14T08:53:02.063Z,9.30
2022-08-14T08:55:30.285Z,9.63
2022-08-14T08:58:05.414Z,9.55
2022-08-14T09:00:41.496Z,9.48
2022-08-14T09:03:20.314Z,9.75
2022-08-14T09:05:51.678Z,9.90
2022-08-14T09:08:32.739Z,9.48
2022-08-14T09:11:19.534Z,10.32
2022-08-14T09:13:50.750Z,9.48
2022-08-14T09:16:25.295Z,9.57
2022-08-14T09:18:53.906Z,9.30
2022-08-14T09:21:24.108Z,9.23
2022-08-14T09:26:39.785Z,9.65
2022-08-14T09:29:06.696Z,8.68
2022-08-14T09:31:42.950Z,9.13
2022-08-14T09:34:58.512Z,9.38
2022-08-14T09:37:44.506Z,9.38
2022-08-14T09:40:29.367Z,9.70
2022-08-14T09:43:22.345Z,9.63
2022-08-14T09:45:53.596Z,9.52
2022-08-14T09:48:27.930Z,10.05
2022-08-14T09:54:06.083Z,9.57
2022-08-14T09:56:30.063Z,9.60
2022-08-14T09:59:00.276Z,10.30
2022-08-14T10:01:36.445Z,8.93
2022-08-14T10:04:34.881Z,8.77
2022-08-14T10:07:05.388Z,8.50
2022-08-14T10:09:33.316Z,9.63
2022-08-14T10:12:01.034Z,9.00
2022-08-14T10:14:35.707Z,9.05
2022-08-14T10:17:06.242Z,8.25
2022-08-14T10:19:36.520Z,8.27
2022-08-14T10:23:15.202Z,8.07
2022-08-14T10:24:55.798Z,7.82
2022-08-14T10:27:27.316Z,7.20
2022-08-14T10:30:04.681Z,8.93
2022-08-14T10:32:51.188Z,8.82
2022-08-14T10:35:31.832Z,8.43
2022-08-14T10:38:00.718Z,7.65
2022-08-14T10:40:37.531Z,8.00
2022-08-14T10:43:22.700Z,8.07
2022-08-14T10:46:03.531Z,7.70
2022-08-14T10:48:45.890Z,6.95
2022-08-14T10:51:16.816Z,7.20
2022-08-14T10:53:56.802Z,7.38
2022-08-14T10:56:35.100Z,6.78
2022-08-14T10:59:05.185Z,6.93
2022-08-14T11:01:40.991Z,7.10
2022-08-14T11:04:25.146Z,6.85
2022-08-14T11:06:53.769Z,7.32
2022-08-14T11:09:20.346Z,6.88
2022-08-14T11:11:56.345Z,7.50
2022-08-14T11:14:42.307Z,6.78
2022-08-14T11:17:10.008Z,6.97
2022-08-14T11:19:38.054Z,6.97
2022-08-14T11:22:06.391Z,6.60
2022-08-14T11:24:55.257Z,6.28
2022-08-14T11:27:33.128Z,5.88
2022-08-14T11:30:51.516Z,6.32
2022-08-14T11:32:57.129Z,6.40
2022-08-14T11:35:26.326Z,6.60
2022-08-14T11:38:12.630Z,6.25
2022-08-14T11:40:39.531Z,6.65
2022-08-14T11:43:08.717Z,6.55
2022-08-14T11:45:38.041Z,6.50
2022-08-14T11:49:03.575Z,6.70
2022-08-14T11:51:14.473Z,6.60
2022-08-14T11:53:44.697Z,6.45
2022-08-14T11:56:12.480Z,6.60
2022-08-14T11:58:40.103Z,6.78
2022-08-14T12:01:08.447Z,6.68
2022-08-14T12:03:46.195Z,6.97
2022-08-14T12:06:29.420Z,6.30
2022-08-14T12:09:08.491Z,6.82
2022-08-14T12:11:43.857Z,6.38
2022-08-14T12:14:29.721Z,6.57
2022-08-14T12:17:12.294Z,6.90
2022-08-14T12:20:10.116Z,6.80
2022-08-14T12:22:52.487Z,6.78
2022-08-14T12:25:24.875Z,6.72
2022-08-14T12:27:58.965Z,7.72
2022-08-14T12:30:43.699Z,6.57
2022-08-14T12:33:24.127Z,7.20
2022-08-14T12:35:57.991Z,7.10
2022-08-14T12:38:43.543Z,6.13
2022-08-14T12:41:22.000Z,6.85
2022-08-14T12:46:35.773Z,6.47
2022-08-14T12:49:17.199Z,5.95
2022-08-14T12:51:56.710Z,6.15
2022-08-14T12:54:27.204Z,6.22
2022-08-14T12:57:08.121Z,6.60
2022-08-14T12:59:37.299Z,6.45
2022-08-14T13:02:22.036Z,6.35
2022-08-14T13:04:54.668Z,7.00
2022-08-14T13:07:21.766Z,6.47
2022-08-14T13:09:56.498Z,6.80
2022-08-14T13:12:33.390Z,6.85
2022-08-14T13:15:09.590Z,6.50
2022-08-14T13:17:44.598Z,6.40
2022-08-14T13:20:23.340Z,5.95
2022-08-14T13:22:52.884Z,6.30
2022-08-14T13:25:22.105Z,6.78
2022-08-14T13:28:00.943Z,7.30
2022-08-14T13:30:29.059Z,7.20
2022-08-14T13:32:58.464Z,6.80
2022-08-14T13:35:26.321Z,6.43
2022-08-14T13:37:53.494Z,6.78
2022-08-14T13:40:26.321Z,6.50
2022-08-14T13:42:56.667Z,6.10
2022-08-14T13:45:33.867Z,6.85
2022-08-14T13:48:27.692Z,6.63
2022-08-14T13:51:01.497Z,6.65
2022-08-14T13:53:33.434Z,6.93
2022-08-14T13:56:01.542Z,6.93
2022-08-14T13:58:35.695Z,6.57
2022-08-14T14:01:02.629Z,6.40
2022-08-14T14:03:34.989Z,6.57
2022-08-14T14:06:03.011Z,7.03
2022-08-14T14:08:46.429Z,5.90
2022-08-14T14:11:16.518Z,6.78
2022-08-14T14:13:45.533Z,6.63
2022-08-14T14:16:15.559Z,6.70
2022-08-14T14:18:56.242Z,6.63
2022-08-14T14:21:28.501Z,6.65
2022-08-14T14:23:56.473Z,6.38
2022-08-14T14:26:24.670Z,6.82
2022-08-14T14:28:57.020Z,6.47
2022-08-14T14:31:30.101Z,6.82
2022-08-14T14:34:07.311Z,7.00
2022-08-14T14:36:43.877Z,6.70
2022-08-14T14:39:11.117Z,6.63
2022-08-14T14:41:43.941Z,6.25
2022-08-14T14:44:13.506Z,6.40
2022-08-14T14:46:44.595Z,6.30
2022-08-14T14:49:14.790Z,6.75
2022-08-14T14:51:46.906Z,6.35
2022-08-14T14:54:31.510Z,6.45
2022-08-14T14:57:00.488Z,6.72
2022-08-14T14:59:33.238Z,6.60
2022-08-14T15:02:08.013Z,6.30
2022-08-14T15:04:38.075Z,6.03
2022-08-14T15:07:06.322Z,6.25
2022-08-14T15:09:33.927Z,6.35
2022-08-14T15:12:00.754Z,6.30
2022-08-14T15:14:56.947Z,5.95
2022-08-14T15:17:13.972Z,6.63
2022-08-14T15:19:42.053Z,7.20
2022-08-14T15:22:25.251Z,6.60
2022-08-14T15:24:52.027Z,6.47
2022-08-14T15:27:26.306Z,6.70
2022-08-14T15:29:53.831Z,6.63
2022-08-14T15:32:23.151Z,6.32
2022-08-14T15:34:51.927Z,6.70
2022-08-14T15:37:23.158Z,6.53
2022-08-14T15:39:52.452Z,6.18
2022-08-14T15:42:20.520Z,6.43
2022-08-14T15:44:57.272Z,6.97
2022-08-14T15:47:28.025Z,6.13
2022-08-14T15:52:32.996Z,6.38
2022-08-14T15:55:05.454Z,6.40
2022-08-14T15:57:33.439Z,6.75
2022-08-14T16:00:40.152Z,7.75
2022-08-14T16:03:08.639Z,6.40
2022-08-14T16:05:38.480Z,7.32
2022-08-14T16:08:24.375Z,6.70
2022-08-14T16:10:55.985Z,6.93
2022-08-14T16:13:42.042Z,6.45
2022-08-14T16:16:47.093Z,9.00
2022-08-14T16:19:18.533Z,7.70
2022-08-14T16:21:58.346Z,6.95
2022-08-14T16:24:33.234Z,7.10
2022-08-14T16:27:01.403Z,6.88
2022-08-14T16:29:31.208Z,6.88
2022-08-14T16:32:01.459Z,6.97
2022-08-14T16:34:46.374Z,6.97
2022-08-14T16:37:19.082Z,7.10
2022-08-14T16:39:47.313Z,7.25
2022-08-14T16:43:03.197Z,6.80
2022-08-14T16:45:03.057Z,6.90
2022-08-14T16:47:32.112Z,6.93
2022-08-14T16:50:08.923Z,7.40
2022-08-14T16:55:13.970Z,7.00
2022-08-14T16:57:54.975Z,7.22
2022-08-14T17:00:43.524Z,7.22
2022-08-14T17:03:13.061Z,7.30
2022-08-14T17:05:43.506Z,6.95
2022-08-14T17:08:32.053Z,7.25
2022-08-14T17:11:10.011Z,7.60
2022-08-14T17:13:58.868Z,7.43
2022-08-14T17:16:37.051Z,7.13
2022-08-14T17:19:09.921Z,7.30
2022-08-14T17:21:40.899Z,7.32
2022-08-14T17:27:03.896Z,6.90
2022-08-14T17:29:34.042Z,6.78
2022-08-14T17:32:22.194Z,7.10
2022-08-14T17:34:57.788Z,7.30
2022-08-14T17:37:30.179Z,7.57
2022-08-14T17:40:01.247Z,7.25
2022-08-14T17:42:51.036Z,7.22
2022-08-14T17:45:28.715Z,7.20
2022-08-14T17:49:14.798Z,6.93
2022-08-14T17:51:24.175Z,6.80
2022-08-14T17:54:02.933Z,7.20
2022-08-14T17:56:32.242Z,7.45
2022-08-14T17:59:02.489Z,7.10
2022-08-14T18:01:35.627Z,7.30
2022-08-14T18:04:05.751Z,7.72
2022-08-14T18:06:58.554Z,8.02
2022-08-14T18:09:56.213Z,8.45
2022-08-14T18:15:14.858Z,7.55
2022-08-14T18:17:52.730Z,7.57
2022-08-14T18:21:40.730Z,9.98
2022-08-14T18:23:10.576Z,8.15
2022-08-14T18:25:53.023Z,7.10
2022-08-14T18:28:51.156Z,7.05
2022-08-14T18:31:21.214Z,7.57
2022-08-14T18:33:59.946Z,7.32
2022-08-14T18:36:46.500Z,7.63
2022-08-14T18:39:31.679Z,7.00
2022-08-14T18:42:23.524Z,7.43
2022-08-14T18:44:50.667Z,6.90
2022-08-14T18:47:20.218Z,7.25
2022-08-14T18:49:53.083Z,8.15
2022-08-14T18:52:22.440Z,7.57
2022-08-14T18:54:59.232Z,7.03
2022-08-14T18:57:27.139Z,7.30
2022-08-14T19:00:33.941Z,6.85
2022-08-14T19:03:03.774Z,6.88
2022-08-14T19:05:47.110Z,6.85
2022-08-14T19:08:17.827Z,7.10
2022-08-14T19:10:49.355Z,7.25
2022-08-14T19:13:48.186Z,7.05
2022-08-14T19:16:23.281Z,7.22
2022-08-14T19:18:52.266Z,7.47
2022-08-14T19:21:34.782Z,8.15
2022-08-14T19:24:27.813Z,7.90
2022-08-14T19:27:24.073Z,8.68
2022-08-14T19:30:24.776Z,8.82
2022-08-14T19:32:57.064Z,9.57
2022-08-14T19:35:49.393Z,8.48
2022-08-14T19:38:47.686Z,9.18
2022-08-14T19:41:16.298Z,9.23
2022-08-14T19:43:55.523Z,8.85
2022-08-14T19:46:38.904Z,8.55
2022-08-14T19:49:23.256Z,8.63
2022-08-14T19:52:02.999Z,9.38
2022-08-14T19:54:36.970Z,9.73
2022-08-14T19:57:04.729Z,9.13
2022-08-14T19:59:36.731Z,9.85
2022-08-14T20:02:30.132Z,9.18
2022-08-14T20:05:03.884Z,10.13
2022-08-14T20:07:59.565Z,9.77
2022-08-14T20:11:03.749Z,9.88
2022-08-14T20:13:29.363Z,11.25
2022-08-14T20:16:02.322Z,10.13
2022-08-14T20:21:15.867Z,9.90
2022-08-14T20:23:42.650Z,9.60
2022-08-14T20:26:30.793Z,8.60
2022-08-14T20:28:59.219Z,8.98
2022-08-14T20:31:37.306Z,9.55
2022-08-14T20:34:24.256Z,8.27
2022-08-14T20:37:10.510Z,8.52
2022-08-14T20:39:54.614Z,9.15
2022-08-14T20:42:43.907Z,8.98
2022-08-14T20:45:20.077Z,8.90
2022-08-14T20:48:01.045Z,9.25
2022-08-14T20:50:30.178Z,9.95
2022-08-14T20:52:58.626Z,9.80
2022-08-14T20:55:29.099Z,9.75
2022-08-14T20:58:09.888Z,9.88
2022-08-14T21:01:02.976Z,10.43
2022-08-14T21:03:56.384Z,10.20
2022-08-14T21:07:22.878Z,9.35
2022-08-14T21:10:04.974Z,10.82
2022-08-14T21:12:34.362Z,11.32
2022-08-14T21:15:00.625Z,10.38
2022-08-14T21:17:27.439Z,12.07
2022-08-14T21:19:54.118Z,10.27
2022-08-14T21:22:20.703Z,11.30
2022-08-14T21:24:48.518Z,11.38
2022-08-14T21:27:20.064Z,11.50
2022-08-14T21:29:49.829Z,12.20
2022-08-14T21:32:33.655Z,12.10
2022-08-14T21:35:04.131Z,12.13
2022-08-14T21:37:36.500Z,11.05
2022-08-14T21:40:40.907Z,12.30
2022-08-14T21:42:51.925Z,13.35
2022-08-14T21:45:20.188Z,12.15
2022-08-14T21:47:47.127Z,11.57
2022-08-14T21:50:56.337Z,11.77
2022-08-14T21:53:03.823Z,12.90
2022-08-14T21:55:32.970Z,13.98
2022-08-14T21:58:51.822Z,13.45
2022-08-14T22:00:49.420Z,13.38
2022-08-14T22:03:19.994Z,13.75
2022-08-14T22:05:55.920Z,14.55
2022-08-14T22:08:26.918Z,13.70
2022-08-14T22:10:53.803Z,13.45
2022-08-14T22:13:24.642Z,14.10
2022-08-14T22:15:58.149Z,12.73
2022-08-14T22:18:26.525Z,13.07
2022-08-14T22:20:56.811Z,12.10
2022-08-14T22:23:24.750Z,12.85
2022-08-14T22:25:53.670Z,13.57
2022-08-14T22:28:25.449Z,13.65
2022-08-14T22:30:54.931Z,13.40
2022-08-14T22:33:30.827Z,12.15
2022-08-14T22:35:58.831Z,13.82
2022-08-14T22:38:37.289Z,13.68
2022-08-14T22:41:29.507Z,12.73
2022-08-14T22:43:59.572Z,12.80
2022-08-14T22:46:27.031Z,12.10
2022-08-14T22:48:54.212Z,13.18
2022-08-14T22:51:25.981Z,14.73
2022-08-14T22:53:55.952Z,14.85
2022-08-14T22:56:29.236Z,14.95
2022-08-14T22:59:00.645Z,15.75
2022-08-14T23:04:34.769Z,15.20
2022-08-14T23:07:21.806Z,15.98
2022-08-14T23:09:56.464Z,15.30
2022-08-14T23:12:29.598Z,16.90
2022-08-14T23:14:59.424Z,16.50
2022-08-14T23:17:39.459Z,19.73
2022-08-14T23:22:48.336Z,16.88
2022-08-14T23:25:20.035Z,15.15
2022-08-14T23:28:06.733Z,15.27
2022-08-14T23:30:54.275Z,19.08
2022-08-14T23:33:22.369Z,15.75
2022-08-14T23:35:59.090Z,15.93
2022-08-14T23:38:30.992Z,16.60
2022-08-14T23:41:03.185Z,16.48
2022-08-14T23:43:31.698Z,16.92
2022-08-14T23:45:58.887Z,17.00
2022-08-14T23:48:28.195Z,18.85
2022-08-14T23:50:55.401Z,18.00
2022-08-14T23:53:47.289Z,14.70
2022-08-14T23:56:31.722Z,18.20
2022-08-14T23:59:01.146Z,16.58
